Time;durP1;ratioP1;P1;durP2;ratioP2;P2;SDS_P1;SDS_P2;PMS_P1;PMS_P2;Temp;Humidity;BMP_temperature;BMP_pressure;BME280_temperature;BME280_humidity;BME280_pressure;Samples;Min_cycle;Max_cycle;Signal;HPM_P1;HPM_P2
2023/12/14 00:03:13;;;;;;;47.87;15.10;;;4.40;99.90;;;2.33;100.00;98661.59;10457254;27;96614;-84
2023/12/14 00:08:16;;;;;;;44.90;15.00;;;4.40;99.90;;;2.32;100.00;98670.44;10503317;27;96551;-84
2023/12/14 00:13:19;;;;;;;38.10;12.47;;;4.40;99.90;;;2.27;100.00;98669.25;10473743;27;96584;-84
2023/12/14 00:18:23;;;;;;;58.50;15.60;;;4.40;99.90;;;2.29;100.00;98683.88;10505425;27;96557;-83
2023/12/14 00:23:26;;;;;;;71.07;17.77;;;4.30;99.90;;;2.19;100.00;98672.63;10487825;27;96552;-83
2023/12/14 00:28:31;;;;;;;45.70;15.33;;;4.40;99.90;;;2.24;100.00;98678.25;10498990;27;96510;-83
2023/12/14 00:33:37;;;;;;;30.37;11.13;;;4.30;99.90;;;2.22;100.00;98679.38;10471338;27;96709;-84
2023/12/14 00:38:40;;;;;;;38.60;11.53;;;4.30;99.90;;;2.22;100.00;98685.47;10468228;27;96765;-83
2023/12/14 00:43:43;;;;;;;22.27;8.70;;;4.20;99.90;;;2.22;100.00;98692.47;10487981;27;96583;-83
2023/12/14 00:48:47;;;;;;;22.50;7.73;;;4.30;99.90;;;2.27;100.00;98698.91;10501360;27;97977;-83
2023/12/14 00:53:51;;;;;;;43.80;12.37;;;4.30;99.90;;;2.38;100.00;98716.19;10463710;27;96759;-83
2023/12/14 00:58:54;;;;;;;17.00;7.10;;;4.40;99.90;;;2.51;100.00;98742.03;10465155;27;96571;-83
2023/12/14 01:03:59;;;;;;;15.17;6.23;;;4.50;99.90;;;2.61;100.00;98763.75;10450176;27;97988;-83
2023/12/14 01:09:03;;;;;;;15.33;5.90;;;4.60;99.90;;;2.75;100.00;98788.59;10463444;27;96551;-84
2023/12/14 01:14:06;;;;;;;18.23;6.00;;;4.70;99.90;;;2.87;100.00;98803.13;10458579;27;97108;-84
2023/12/14 01:19:10;;;;;;;22.53;7.53;;;4.80;99.90;;;2.91;100.00;98781.69;10486675;27;96586;-83
2023/12/14 01:24:14;;;;;;;25.00;7.77;;;4.80;99.90;;;2.88;100.00;98760.19;10458814;27;96816;-83
2023/12/14 01:29:18;;;;;;;20.63;8.13;;;4.80;99.90;;;2.86;100.00;98747.19;10447902;27;96543;-84
2023/12/14 01:34:21;;;;;;;22.53;7.53;;;4.80;99.90;;;2.85;100.00;98737.69;10470015;27;96668;-84
2023/12/14 01:39:25;;;;;;;22.00;7.00;;;4.80;99.90;;;2.88;100.00;98716.41;10461269;27;96712;-83
2023/12/14 01:44:29;;;;;;;14.93;6.53;;;4.80;99.90;;;2.95;100.00;98716.59;10482727;27;96546;-84
2023/12/14 01:49:32;;;;;;;17.17;6.00;;;4.80;99.90;;;3.02;100.00;98707.13;10444582;27;96501;-84
2023/12/14 01:54:35;;;;;;;11.83;5.20;;;4.90;99.90;;;3.11;100.00;98693.03;10458131;27;98785;-84
2023/12/14 01:59:39;;;;;;;12.07;4.43;;;5.00;99.90;;;3.11;100.00;98687.78;10482908;27;97073;-84
2023/12/14 02:04:42;;;;;;;10.13;4.87;;;5.00;99.90;;;3.16;100.00;98684.72;10455789;27;96670;-84
2023/12/14 02:09:46;;;;;;;17.07;4.93;;;5.10;99.90;;;3.26;100.00;98709.03;10482796;27;96525;-84
2023/12/14 02:14:49;;;;;;;13.97;4.93;;;5.20;99.90;;;3.28;100.00;98714.13;10484279;27;96627;-84
2023/12/14 02:19:52;;;;;;;15.10;4.43;;;5.20;99.90;;;3.30;100.00;98714.78;10446600;27;96655;-84
2023/12/14 02:24:56;;;;;;;16.37;5.03;;;5.20;99.90;;;3.34;100.00;98719.56;10475551;27;96496;-84
2023/12/14 02:30:01;;;;;;;17.20;5.67;;;5.30;99.90;;;3.40;100.00;98708.44;10477706;27;96592;-84
2023/12/14 02:35:05;;;;;;;17.03;5.30;;;5.30;99.90;;;3.48;100.00;98718.16;10462140;27;96558;-84
2023/12/14 02:40:10;;;;;;;15.20;5.50;;;5.40;99.90;;;3.45;100.00;98715.84;10484373;27;96469;-84
2023/12/14 02:45:14;;;;;;;12.87;4.97;;;5.40;99.90;;;3.44;100.00;98729.97;10459285;27;96442;-84
2023/12/14 02:50:17;;;;;;;17.27;7.10;;;5.40;99.90;;;3.35;100.00;98731.72;10461724;27;96531;-83
2023/12/14 02:55:21;;;;;;;15.50;6.50;;;5.40;99.90;;;3.33;100.00;98754.69;10462433;27;96473;-83
2023/12/14 03:00:24;;;;;;;18.60;7.20;;;5.30;99.90;;;3.37;100.00;98761.28;10464790;27;96486;-83
2023/12/14 03:05:28;;;;;;;21.57;6.53;;;5.40;99.90;;;3.35;100.00;98768.47;10472894;27;96884;-84
2023/12/14 03:10:32;;;;;;;21.13;7.10;;;5.30;99.90;;;3.31;100.00;98754.03;10507205;27;96402;-84
2023/12/14 03:15:35;;;;;;;25.13;7.70;;;5.30;99.90;;;3.31;100.00;98751.41;10444952;27;96425;-84
2023/12/14 03:20:38;;;;;;;21.83;8.23;;;5.20;99.90;;;3.27;100.00;98746.63;10482608;27;96486;-84
2023/12/14 03:25:42;;;;;;;16.80;6.13;;;5.20;99.90;;;3.33;100.00;98759.94;10461571;27;96553;-84
2023/12/14 03:30:46;;;;;;;21.47;6.80;;;5.20;99.90;;;3.36;100.00;98775.41;10468325;27;96631;-84
2023/12/14 03:35:49;;;;;;;17.83;6.83;;;5.30;99.90;;;3.34;100.00;98769.47;10468099;27;96461;-84
2023/12/14 03:40:53;;;;;;;14.23;6.03;;;5.20;99.90;;;3.35;100.00;98780.78;10492216;27;96372;-84
2023/12/14 03:45:56;;;;;;;14.13;5.80;;;5.30;99.90;;;3.24;100.00;98781.91;10483415;27;96527;-84
2023/12/14 03:51:04;;;;;;;15.03;5.80;;;5.30;99.90;;;3.27;100.00;98797.31;10466129;27;96625;-84
2023/12/14 03:56:08;;;;;;;15.50;5.40;;;5.30;99.90;;;3.29;100.00;98810.28;10432935;27;96468;-84
2023/12/14 04:01:21;;;;;;;22.03;7.43;;;5.20;99.90;;;3.29;100.00;98831.28;10445241;27;96875;-84
2023/12/14 04:06:24;;;;;;;28.60;8.77;;;5.20;99.90;;;3.30;100.00;98851.31;10474405;27;96554;-83
2023/12/14 04:11:28;;;;;;;34.93;10.50;;;5.20;99.90;;;3.20;100.00;98849.63;10482896;27;96545;-84
2023/12/14 04:16:31;;;;;;;29.03;10.00;;;5.20;99.90;;;3.08;100.00;98850.03;10466804;27;96478;-83
2023/12/14 04:21:36;;;;;;;29.03;10.10;;;5.10;99.90;;;3.01;100.00;98859.50;10437288;27;97562;-84
2023/12/14 04:26:40;;;;;;;25.33;9.30;;;5.00;99.90;;;2.97;100.00;98855.53;10443792;27;96638;-84
2023/12/14 04:31:43;;;;;;;23.57;9.17;;;4.90;99.90;;;2.94;100.00;98865.34;10477927;27;96510;-84
2023/12/14 04:36:48;;;;;;;28.83;10.00;;;4.90;99.90;;;2.88;100.00;98863.34;10445763;27;96614;-84
2023/12/14 04:41:55;;;;;;;28.40;10.17;;;4.80;99.90;;;2.84;100.00;98866.41;10471354;27;96550;-83
2023/12/14 04:46:58;;;;;;;28.33;8.33;;;4.80;99.90;;;2.77;100.00;98860.94;10483939;27;96647;-84
2023/12/14 04:52:02;;;;;;;23.70;9.17;;;4.70;99.90;;;2.78;100.00;98874.88;10447128;27;96581;-84
2023/12/14 04:57:06;;;;;;;25.87;9.70;;;4.70;99.90;;;2.77;100.00;98883.72;10461117;27;96734;-84
2023/12/14 05:02:09;;;;;;;27.83;8.93;;;4.70;99.90;;;2.72;100.00;98883.34;10481637;27;96504;-84
2023/12/14 05:07:13;;;;;;;22.90;9.17;;;4.70;99.90;;;2.72;100.00;98888.59;10460846;27;96548;-83
2023/12/14 05:12:16;;;;;;;25.17;8.50;;;4.60;99.90;;;2.74;100.00;98895.31;10449994;27;96520;-83
2023/12/14 05:17:20;;;;;;;19.57;8.53;;;4.60;99.90;;;2.71;100.00;98895.66;10468144;27;96504;-83
2023/12/14 05:22:23;;;;;;;25.83;9.53;;;4.60;99.90;;;2.73;100.00;98912.03;10468558;27;96541;-83
2023/12/14 05:27:27;;;;;;;22.90;8.37;;;4.70;99.90;;;2.73;100.00;98922.53;10448460;27;96548;-83
2023/12/14 05:32:31;;;;;;;19.17;8.20;;;4.60;99.90;;;2.78;100.00;98922.94;10464485;27;96671;-83
2023/12/14 05:37:35;;;;;;;18.73;8.23;;;4.70;99.90;;;2.82;100.00;98918.19;10459519;27;96510;-83
2023/12/14 05:42:39;;;;;;;20.43;8.47;;;4.70;99.90;;;2.82;100.00;98919.03;10455640;27;96495;-83
2023/12/14 05:47:42;;;;;;;21.67;8.90;;;4.80;99.90;;;2.85;100.00;98929.22;10479620;27;96500;-83
2023/12/14 05:52:46;;;;;;;25.43;9.10;;;4.80;99.90;;;2.90;100.00;98950.59;10460118;27;96465;-83
2023/12/14 05:57:50;;;;;;;24.27;9.07;;;4.80;99.90;;;2.89;100.00;98948.94;10480803;27;96423;-83
2023/12/14 06:02:54;;;;;;;24.00;8.80;;;4.80;99.90;;;2.94;100.00;98954.56;10460688;27;96522;-83
2023/12/14 06:07:58;;;;;;;29.10;8.87;;;4.80;99.90;;;2.94;100.00;98959.81;10433469;27;96627;-83
2023/12/14 06:13:01;;;;;;;24.30;9.30;;;4.80;99.90;;;2.98;100.00;98973.44;10475559;27;96565;-83
2023/12/14 06:18:05;;;;;;;26.57;8.60;;;4.90;99.90;;;2.93;100.00;98970.44;10486212;27;96469;-83
2023/12/14 06:23:09;;;;;;;18.07;8.13;;;4.90;99.90;;;2.92;100.00;98969.63;10459226;27;97059;-83
2023/12/14 06:28:12;;;;;;;25.23;9.03;;;4.90;99.90;;;2.94;100.00;98980.81;10474547;27;96964;-83
2023/12/14 06:33:16;;;;;;;32.03;13.70;;;4.90;99.90;;;2.94;100.00;98986.06;10468727;27;96911;-83
2023/12/14 06:38:19;;;;;;;28.33;9.93;;;4.90;99.90;;;2.90;100.00;98973.38;10469931;27;98025;-83
2023/12/14 06:43:23;;;;;;;27.63;10.47;;;4.90;99.90;;;2.90;100.00;98989.94;10474646;27;96538;-83
2023/12/14 06:48:26;;;;;;;26.77;9.83;;;4.90;99.90;;;2.91;100.00;99003.88;10453596;27;96591;-83
2023/12/14 06:53:30;;;;;;;24.90;8.90;;;4.90;99.90;;;2.88;100.00;99004.19;10458835;27;97848;-82
2023/12/14 06:58:35;;;;;;;29.27;10.87;;;4.90;99.90;;;2.88;100.00;99010.28;10475793;27;96391;-82
2023/12/14 07:03:44;;;;;;;25.13;9.43;;;4.90;99.90;;;2.96;100.00;99027.91;10464624;27;96652;-82
2023/12/14 07:08:47;;;;;;;22.77;9.70;;;5.00;99.90;;;3.01;100.00;99032.72;10465087;27;96558;-82
2023/12/14 07:13:51;;;;;;;24.43;9.13;;;5.00;99.90;;;3.07;100.00;99034.75;10446987;27;96602;-82
2023/12/14 07:18:54;;;;;;;22.57;9.10;;;5.00;99.90;;;3.18;100.00;99058.16;10475841;27;96520;-82
2023/12/14 07:23:59;;;;;;;23.67;9.17;;;5.10;99.90;;;3.26;100.00;99060.84;10469371;27;96479;-83
2023/12/14 07:29:02;;;;;;;30.90;10.23;;;5.20;99.90;;;3.33;100.00;99072.41;10458598;27;96467;-82
2023/12/14 07:34:06;;;;;;;31.60;10.33;;;5.20;99.90;;;3.40;100.00;99076.09;10466689;27;96630;-83
2023/12/14 07:39:09;;;;;;;29.00;10.80;;;5.30;99.90;;;3.41;100.00;99072.47;10455891;27;96629;-83
2023/12/14 07:44:14;;;;;;;26.33;10.10;;;5.40;99.90;;;3.44;100.00;99071.38;10427072;27;96622;-83
2023/12/14 07:49:22;;;;;;;24.90;10.83;;;5.40;99.90;;;3.42;100.00;99068.91;10466367;27;96480;-83
2023/12/14 07:54:26;;;;;;;25.87;10.60;;;5.40;99.90;;;3.56;100.00;99098.25;10472445;27;97319;-83
2023/12/14 07:59:30;;;;;;;22.63;10.47;;;5.50;99.90;;;3.55;100.00;99099.22;10461836;27;98047;-83
2023/12/14 08:04:34;;;;;;;27.07;11.00;;;5.50;99.90;;;3.60;100.00;99110.06;10473870;27;96594;-83
2023/12/14 08:09:37;;;;;;;41.87;15.97;;;5.50;99.90;;;3.63;100.00;99117.66;10466731;27;96460;-83
2023/12/14 08:14:43;;;;;;;27.97;13.20;;;5.50;99.90;;;3.64;100.00;99120.13;10446918;27;96691;-83
2023/12/14 08:19:47;;;;;;;24.10;11.33;;;5.50;99.90;;;3.70;100.00;99121.34;10455839;27;96487;-83
2023/12/14 08:24:50;;;;;;;19.80;9.70;;;5.60;99.90;;;3.79;100.00;99138.03;10454386;27;97335;-83
2023/12/14 08:29:54;;;;;;;19.57;9.70;;;5.60;99.90;;;3.86;100.00;99139.06;10420673;28;96419;-83
2023/12/14 08:34:59;;;;;;;19.90;9.57;;;5.70;99.90;;;3.90;100.00;99143.88;10447826;27;96571;-83
2023/12/14 08:40:03;;;;;;;26.90;12.27;;;5.80;99.90;;;3.97;100.00;99152.81;10467117;27;96520;-83
2023/12/14 08:45:11;;;;;;;20.47;10.23;;;5.80;99.90;;;4.03;100.00;99156.63;10485085;27;96772;-84
2023/12/14 08:50:15;;;;;;;19.87;10.37;;;5.90;99.90;;;4.13;100.00;99153.91;10477506;27;96655;-84
2023/12/14 08:55:19;;;;;;;28.37;13.07;;;6.00;99.90;;;4.21;100.00;99154.00;10471394;27;96531;-83
2023/12/14 09:00:23;;;;;;;19.53;9.80;;;6.10;99.90;;;4.27;100.00;99153.38;10448195;27;96472;-82
2023/12/14 09:05:27;;;;;;;20.63;10.00;;;6.20;99.90;;;4.39;100.00;99178.47;10446927;27;96678;-82
2023/12/14 09:10:30;;;;;;;18.47;9.33;;;6.30;99.90;;;4.50;100.00;99175.59;10460760;27;97331;-82
2023/12/14 09:15:34;;;;;;;18.77;9.53;;;6.40;99.90;;;4.56;100.00;99172.34;10473724;27;97805;-82
2023/12/14 09:20:40;;;;;;;17.80;8.50;;;6.50;99.90;;;4.74;100.00;99176.72;10467541;27;97720;-82
2023/12/14 09:25:44;;;;;;;16.60;7.63;;;6.60;99.90;;;4.94;100.00;99188.66;10450627;27;96604;-83
2023/12/14 09:30:48;;;;;;;15.57;6.77;;;6.80;99.90;;;5.13;100.00;99192.06;10461867;27;96407;-83
2023/12/14 09:35:51;;;;;;;13.50;6.50;;;7.00;99.90;;;5.30;100.00;99188.50;10454381;27;96629;-82
2023/12/14 09:40:56;;;;;;;12.00;6.30;;;7.20;99.90;;;5.51;100.00;99201.25;10467553;27;96479;-82
2023/12/14 09:46:00;;;;;;;12.27;5.97;;;7.40;99.90;;;5.69;100.00;99215.16;10457365;27;96646;-82
2023/12/14 09:51:06;;;;;;;10.43;5.63;;;7.50;99.90;;;5.83;100.00;99213.72;10442144;27;97931;-82
2023/12/14 09:56:09;;;;;;;9.27;5.47;;;7.70;99.90;;;5.93;100.00;99203.03;10462621;27;96711;-82
2023/12/14 10:01:24;;;;;;;10.77;6.20;;;7.80;99.90;;;6.00;100.00;99215.44;10448967;27;96639;-82
2023/12/14 10:06:29;;;;;;;8.73;5.10;;;7.90;99.90;;;6.08;100.00;99218.06;10460959;27;96752;-83
2023/12/14 10:11:33;;;;;;;8.57;5.13;;;7.90;99.90;;;6.14;100.00;99220.06;10460525;27;96600;-82
2023/12/14 10:16:36;;;;;;;8.30;4.57;;;7.90;99.90;;;6.12;100.00;99221.22;10460256;27;96531;-83
2023/12/14 10:21:40;;;;;;;8.93;4.33;;;8.00;99.90;;;6.22;100.00;99242.97;10418727;28;96399;-83
2023/12/14 10:26:48;;;;;;;11.67;5.07;;;8.00;99.90;;;6.21;100.00;99249.25;10465308;27;97019;-82
2023/12/14 10:31:53;;;;;;;9.80;4.23;;;8.00;99.90;;;6.25;100.00;99241.84;10447713;27;96769;-82
2023/12/14 10:36:57;;;;;;;8.20;4.20;;;8.00;99.90;;;6.35;100.00;99243.31;10469554;27;96524;-82
2023/12/14 10:42:04;;;;;;;8.87;4.80;;;8.10;99.90;;;6.42;100.00;99244.34;10483746;27;96463;-82
2023/12/14 10:47:21;;;;;;;8.47;4.53;;;8.20;99.90;;;6.56;100.00;99245.47;10457942;27;96389;-84
2023/12/14 10:52:26;;;;;;;8.33;4.23;;;8.40;99.90;;;6.61;100.00;99251.09;10460017;27;96526;-82
2023/12/14 10:57:29;;;;;;;8.03;4.57;;;8.40;99.90;;;6.65;100.00;99260.31;10467230;27;96524;-82
2023/12/14 11:02:44;;;;;;;7.83;4.30;;;8.50;99.90;;;6.70;100.00;99263.28;10463888;27;97783;-83
2023/12/14 11:07:55;;;;;;;17.83;7.77;;;8.50;99.90;;;6.70;100.00;99268.56;10419638;27;96738;-83
2023/12/14 11:13:06;;;;;;;17.67;8.50;;;8.50;99.90;;;6.58;100.00;99264.59;10400012;28;96536;-83
2023/12/14 11:18:09;;;;;;;13.05;6.72;;;8.50;99.90;;;6.63;100.00;99279.97;10447219;27;96678;-82
2023/12/14 11:23:29;;;;;;;8.33;4.90;;;8.40;99.90;;;6.56;100.00;99298.28;10483862;27;96627;-83
2023/12/14 11:28:43;;;;;;;8.13;4.40;;;8.40;99.90;;;6.48;100.00;99297.41;10469620;27;96679;-83
2023/12/14 11:33:48;;;;;;;7.93;4.47;;;8.30;99.90;;;6.37;100.00;99299.41;10458533;27;96555;-83
2023/12/14 11:38:54;;;;;;;7.93;4.20;;;8.30;99.90;;;6.34;100.00;99304.19;10464365;27;97500;-82
2023/12/14 11:43:58;;;;;;;8.43;4.40;;;8.20;99.90;;;6.27;100.00;99303.19;10468880;27;96758;-83
2023/12/14 11:49:03;;;;;;;9.77;4.77;;;8.10;99.90;;;6.15;100.00;99303.47;10481358;27;97200;-83
2023/12/14 11:54:08;;;;;;;11.73;5.20;;;8.10;99.90;;;6.19;100.00;99311.09;10473493;27;96511;-83
2023/12/14 11:59:12;;;;;;;8.93;4.93;;;8.00;99.90;;;6.16;100.00;99309.56;10465377;27;96411;-83
2023/12/14 12:04:18;;;;;;;8.77;5.80;;;8.00;99.90;;;6.13;100.00;99316.00;10437484;27;97734;-81
2023/12/14 12:09:40;;;;;;;10.23;5.67;;;8.00;99.90;;;6.14;100.00;99322.94;10469592;27;96752;-83
2023/12/14 12:14:44;;;;;;;10.27;4.90;;;8.00;99.90;;;6.12;100.00;99330.19;10478641;27;96536;-83
2023/12/14 12:19:47;;;;;;;10.00;5.03;;;8.00;99.90;;;6.14;100.00;99322.94;10462307;27;96791;-83
2023/12/14 12:24:51;;;;;;;10.67;4.77;;;8.00;99.90;;;6.21;100.00;99332.84;10447193;27;96423;-82
2023/12/14 12:30:08;;;;;;;10.37;4.93;;;8.00;99.90;;;6.14;100.00;99336.13;10460390;27;96568;-83
2023/12/14 12:35:12;;;;;;;8.70;5.03;;;8.00;99.90;;;6.13;100.00;99342.41;10449691;27;98019;-83
2023/12/14 12:40:19;;;;;;;10.33;5.53;;;8.00;99.90;;;6.25;100.00;99352.66;10462734;27;96547;-83
2023/12/14 12:45:27;;;;;;;10.63;5.27;;;8.00;99.90;;;6.33;100.00;99357.94;10442955;27;96572;-83
2023/12/14 12:50:31;;;;;;;8.60;4.37;;;8.10;99.90;;;6.38;100.00;99369.66;10463748;27;96751;-83
2023/12/14 12:55:34;;;;;;;8.90;4.87;;;8.20;99.90;;;6.39;100.00;99368.69;10465014;27;96464;-83
2023/12/14 13:00:38;;;;;;;9.37;4.63;;;8.20;99.90;;;6.40;100.00;99366.84;10465147;27;96505;-83
2023/12/14 13:05:43;;;;;;;12.00;7.10;;;8.20;99.90;;;6.45;100.00;99388.31;10487684;27;96522;-83
2023/12/14 13:10:48;;;;;;;10.97;5.80;;;8.30;99.90;;;6.43;100.00;99398.22;10471609;27;97355;-83
2023/12/14 13:15:53;;;;;;;9.77;5.43;;;8.20;99.90;;;6.41;100.00;99408.09;10434036;27;96593;-83
2023/12/14 13:20:57;;;;;;;9.57;5.13;;;8.20;99.90;;;6.38;100.00;99418.97;10445022;27;96612;-83
2023/12/14 13:26:00;;;;;;;11.43;5.07;;;8.30;99.90;;;6.35;100.00;99417.47;10442153;27;96533;-83
2023/12/14 13:31:05;;;;;;;21.50;7.83;;;8.20;99.90;;;6.36;100.00;99429.72;10462354;27;96668;-83
2023/12/14 13:36:10;;;;;;;19.30;8.33;;;8.20;99.90;;;6.31;100.00;99420.63;10432656;27;96499;-83
2023/12/14 13:41:13;;;;;;;9.23;5.37;;;8.20;99.90;;;6.30;100.00;99432.97;10468014;27;96603;-83
2023/12/14 13:46:17;;;;;;;9.70;5.27;;;8.20;99.90;;;6.34;100.00;99451.94;10447524;27;98177;-83
2023/12/14 13:51:26;;;;;;;9.67;5.13;;;8.20;99.90;;;6.35;100.00;99469.44;10453314;27;96623;-82
2023/12/14 13:56:29;;;;;;;8.43;4.60;;;8.20;99.90;;;6.33;100.00;99468.78;10428626;27;96949;-82
2023/12/14 14:01:33;;;;;;;10.77;5.07;;;8.20;99.90;;;6.30;100.00;99464.66;10443879;27;96540;-83
2023/12/14 14:06:37;;;;;;;8.67;4.70;;;8.20;99.90;;;6.30;100.00;99474.38;10443112;27;96574;-83
2023/12/14 14:11:45;;;;;;;8.07;4.80;;;8.20;99.90;;;6.29;100.00;99486.72;10457740;27;96778;-82
2023/12/14 14:16:49;;;;;;;7.57;4.37;;;8.10;99.90;;;6.24;100.00;99501.34;10454759;27;96525;-81
2023/12/14 14:21:52;;;;;;;8.67;5.13;;;8.10;99.90;;;6.20;100.00;99513.22;10439004;27;96613;-82
2023/12/14 14:26:56;;;;;;;8.27;4.47;;;8.10;99.90;;;6.12;100.00;99525.41;10446940;27;96673;-82
2023/12/14 14:31:59;;;;;;;11.23;4.80;;;8.00;99.90;;;6.11;100.00;99536.91;10447468;27;96547;-82
2023/12/14 14:37:03;;;;;;;10.17;5.47;;;8.00;99.90;;;6.03;100.00;99543.94;10416303;27;96580;-82
2023/12/14 14:42:06;;;;;;;12.27;7.00;;;8.00;99.90;;;5.98;100.00;99552.31;10420710;27;98198;-82
2023/12/14 14:47:10;;;;;;;9.33;5.57;;;7.90;99.90;;;5.90;100.00;99544.31;10486175;27;96534;-82
2023/12/14 14:52:15;;;;;;;18.97;8.57;;;7.90;99.90;;;5.93;100.00;99556.41;10463986;27;96584;-81
2023/12/14 14:57:18;;;;;;;12.47;6.47;;;7.80;99.90;;;5.89;100.00;99569.06;10480044;27;96546;-82
2023/12/14 15:02:22;;;;;;;20.60;9.47;;;7.80;99.90;;;5.80;100.00;99573.41;10466067;27;97062;-82
2023/12/14 15:07:26;;;;;;;11.10;6.23;;;7.80;99.90;;;5.75;100.00;99577.47;10457335;27;96603;-82
2023/12/14 15:12:29;;;;;;;13.27;6.70;;;7.70;99.90;;;5.71;100.00;99591.97;10437540;27;98005;-82
2023/12/14 15:17:33;;;;;;;11.57;5.37;;;7.70;99.90;;;5.67;100.00;99601.16;10448746;27;96640;-82
2023/12/14 15:22:37;;;;;;;23.97;10.93;;;7.60;99.90;;;5.65;100.00;99611.84;10483532;27;97247;-83
2023/12/14 15:27:40;;;;;;;10.67;5.73;;;7.60;99.90;;;5.61;100.00;99623.66;10497395;27;96496;-82
2023/12/14 15:32:44;;;;;;;8.27;5.43;;;7.50;99.90;;;5.58;100.00;99624.81;10444552;27;96630;-82
2023/12/14 15:37:48;;;;;;;9.53;4.43;;;7.50;99.90;;;5.59;100.00;99634.38;10438344;27;96444;-82
2023/12/14 15:42:54;;;;;;;11.77;5.90;;;7.50;99.90;;;5.66;100.00;99641.69;10458338;27;97437;-82
2023/12/14 15:47:57;;;;;;;9.97;5.33;;;7.50;99.90;;;5.68;100.00;99655.53;10439695;27;96731;-82
2023/12/14 15:53:01;;;;;;;14.37;5.97;;;7.60;99.90;;;5.66;100.00;99658.31;10454304;27;96470;-82
2023/12/14 15:58:05;;;;;;;11.67;6.00;;;7.50;99.90;;;5.64;100.00;99665.56;10461387;27;96567;-82
2023/12/14 16:03:09;;;;;;;12.53;5.67;;;7.60;99.90;;;5.60;100.00;99675.56;10479449;27;96697;-82
2023/12/14 16:08:12;;;;;;;10.20;5.80;;;7.50;99.90;;;5.55;100.00;99688.34;10497523;27;96533;-82
2023/12/14 16:13:16;;;;;;;7.93;4.17;;;7.50;99.90;;;5.50;100.00;99695.84;10446985;27;96665;-82
2023/12/14 16:18:22;;;;;;;12.10;5.73;;;7.50;99.90;;;5.46;100.00;99705.06;10441113;27;97651;-82
2023/12/14 16:23:26;;;;;;;12.53;5.63;;;7.40;99.90;;;5.39;100.00;99703.97;10464143;27;96455;-82
2023/12/14 16:28:30;;;;;;;11.50;5.47;;;7.30;99.90;;;5.29;100.00;99711.09;10467259;27;96500;-82
2023/12/14 16:33:39;;;;;;;20.90;9.33;;;7.30;99.90;;;5.22;100.00;99728.47;10464291;27;96544;-82
2023/12/14 16:38:44;;;;;;;16.50;8.63;;;7.20;99.90;;;5.15;100.00;99740.53;10469833;27;96501;-82
2023/12/14 16:43:50;;;;;;;56.90;25.77;;;7.10;99.90;;;5.07;100.00;99746.53;10456284;27;96557;-82
2023/12/14 16:48:53;;;;;;;33.53;15.83;;;7.10;99.90;;;5.04;100.00;99752.94;10463377;27;96437;-82
2023/12/14 16:53:57;;;;;;;20.07;10.50;;;7.00;99.90;;;4.98;100.00;99768.47;10488322;27;96906;-82
2023/12/14 16:59:00;;;;;;;12.90;7.07;;;7.00;99.90;;;4.98;100.00;99776.38;10487395;27;96881;-82
2023/12/14 17:04:07;;;;;;;11.30;6.33;;;6.90;99.90;;;4.91;100.00;99788.41;10470545;27;96577;-82
2023/12/14 17:09:11;;;;;;;12.23;5.80;;;6.90;99.90;;;4.88;100.00;99793.97;10459262;27;96503;-82
2023/12/14 17:14:17;;;;;;;11.23;5.70;;;6.80;99.90;;;4.85;100.00;99810.88;10445598;27;96445;-82
2023/12/14 17:19:20;;;;;;;12.33;6.47;;;6.80;99.90;;;4.82;100.00;99816.44;10486875;27;96768;-82
2023/12/14 17:24:24;;;;;;;11.53;5.67;;;6.70;99.90;;;4.74;100.00;99825.03;10504265;27;96433;-82
2023/12/14 17:29:28;;;;;;;14.77;7.20;;;6.70;99.90;;;4.64;100.00;99826.00;10463508;27;96418;-82
2023/12/14 17:34:32;;;;;;;42.20;12.37;;;6.60;99.90;;;4.57;100.00;99838.88;10442498;27;97015;-82
2023/12/14 17:39:36;;;;;;;23.57;9.33;;;6.50;99.90;;;4.49;100.00;99842.19;10457105;27;96518;-83
2023/12/14 17:44:39;;;;;;;17.20;7.70;;;6.50;99.90;;;4.34;100.00;99851.47;10419412;28;96636;-82
2023/12/14 17:49:43;;;;;;;22.93;10.13;;;6.40;99.90;;;4.24;100.00;99871.66;10454314;27;96737;-82
2023/12/14 17:54:47;;;;;;;20.13;9.43;;;6.30;99.90;;;4.00;100.00;99867.56;10420240;27;96656;-82
2023/12/14 17:59:50;;;;;;;32.77;13.87;;;6.10;99.90;;;3.92;100.00;99895.50;10426737;27;96419;-83
2023/12/14 18:04:54;;;;;;;37.47;16.57;;;6.00;99.90;;;3.76;100.00;99898.63;10463150;27;96816;-82
2023/12/14 18:09:57;;;;;;;44.43;19.70;;;5.80;99.90;;;3.65;100.00;99909.22;10433696;27;96444;-82
2023/12/14 18:15:02;;;;;;;34.90;17.33;;;5.70;99.90;;;3.53;100.00;99918.13;10423758;28;96371;-83
2023/12/14 18:20:06;;;;;;;26.07;13.37;;;5.60;99.90;;;3.31;100.00;99903.38;10455934;27;96472;-82
2023/12/14 18:25:10;;;;;;;23.57;12.23;;;5.50;99.90;;;3.38;100.00;99928.97;10468355;27;97333;-84
2023/12/14 18:30:14;;;;;;;22.67;11.17;;;5.40;99.90;;;3.30;100.00;99939.31;10470782;27;96498;-82
2023/12/14 18:35:18;;;;;;;19.90;10.53;;;5.40;99.90;;;3.23;100.00;99959.13;10444472;27;96584;-84
2023/12/14 18:40:25;;;;;;;21.20;10.60;;;5.30;99.90;;;3.11;100.00;99981.16;10461043;27;97589;-83
2023/12/14 18:45:28;;;;;;;21.33;10.73;;;5.10;99.90;;;2.97;100.00;99978.81;10459318;27;96462;-81
2023/12/14 18:50:32;;;;;;;18.73;9.43;;;5.00;99.90;;;2.85;100.00;99976.22;10462870;27;97410;-84
2023/12/14 18:55:36;;;;;;;16.27;8.10;;;4.90;99.90;;;2.75;100.00;99985.78;10442099;27;96567;-81
2023/12/14 19:00:42;;;;;;;18.93;8.90;;;4.80;99.90;;;2.66;100.00;100005.75;10453686;27;96485;-83
2023/12/14 19:05:46;;;;;;;27.00;13.47;;;4.70;99.90;;;2.58;100.00;100020.41;10452140;27;96688;-82
2023/12/14 19:10:50;;;;;;;22.67;9.90;;;4.60;99.90;;;2.45;100.00;100011.84;10448921;27;96718;-83
2023/12/14 19:15:53;;;;;;;22.83;10.87;;;4.60;99.90;;;2.45;100.00;100027.56;10474844;27;96483;-83
2023/12/14 19:20:57;;;;;;;23.77;12.10;;;4.50;99.90;;;2.38;100.00;100030.66;10458137;27;97646;-83
2023/12/14 19:26:00;;;;;;;31.00;13.00;;;4.50;99.90;;;2.30;100.00;100035.69;10473222;27;96619;-82
2023/12/14 19:31:05;;;;;;;45.67;17.00;;;4.40;99.90;;;2.24;100.00;100041.41;10458998;27;96627;-83
2023/12/14 19:36:14;;;;;;;22.03;9.30;;;4.40;99.90;;;2.40;100.00;100059.44;10457177;27;96567;-83
2023/12/14 19:41:17;;;;;;;24.77;10.90;;;4.40;99.90;;;2.46;100.00;100065.94;10452818;27;96694;-82
2023/12/14 19:46:21;;;;;;;22.23;10.47;;;4.50;99.90;;;2.50;100.00;100073.47;10439949;27;96526;-82
2023/12/14 19:51:25;;;;;;;22.63;10.30;;;4.50;99.90;;;2.46;100.00;100068.56;10455107;27;96560;-82
2023/12/14 19:56:28;;;;;;;18.93;9.23;;;4.50;99.90;;;2.37;100.00;100076.22;10501365;27;96429;-82
2023/12/14 20:01:32;;;;;;;18.23;8.70;;;4.40;99.90;;;2.28;100.00;100074.31;10461893;27;96541;-82
2023/12/14 20:06:36;;;;;;;13.70;7.00;;;4.40;99.90;;;2.47;100.00;100086.84;10464005;27;98114;-82
2023/12/14 20:11:39;;;;;;;16.07;8.37;;;4.40;99.90;;;2.80;100.00;100095.66;10464014;27;96417;-82
2023/12/14 20:16:48;;;;;;;16.27;6.23;;;4.70;99.90;;;3.01;100.00;100098.38;10446873;27;98082;-82
2023/12/14 20:21:51;;;;;;;12.63;6.17;;;4.90;99.90;;;3.18;100.00;100116.25;10453192;27;97492;-82
2023/12/14 20:26:57;;;;;;;12.67;5.70;;;5.10;99.90;;;3.38;100.00;100112.00;10446263;27;96523;-82
2023/12/14 20:32:00;;;;;;;11.80;5.43;;;5.30;99.90;;;3.53;100.00;100104.66;10450562;27;96527;-82
2023/12/14 20:37:04;;;;;;;10.10;4.83;;;5.50;99.90;;;3.63;100.00;100116.09;10470150;27;96480;-82
2023/12/14 20:42:08;;;;;;;10.50;5.20;;;5.50;99.90;;;3.69;100.00;100113.81;10478320;27;96573;-82
2023/12/14 20:47:12;;;;;;;10.03;4.80;;;5.60;99.90;;;3.76;100.00;100129.91;10483864;27;97357;-82
2023/12/14 20:52:15;;;;;;;8.87;4.23;;;5.70;99.90;;;3.80;100.00;100131.34;10459646;27;96635;-82
2023/12/14 20:57:20;;;;;;;8.03;4.63;;;5.70;99.90;;;3.80;100.00;100155.00;10457340;27;96538;-82
2023/12/14 21:02:25;;;;;;;8.97;4.93;;;5.80;99.90;;;3.84;100.00;100140.66;10437101;27;97722;-82
2023/12/14 21:07:29;;;;;;;8.90;4.50;;;5.80;99.90;;;3.88;100.00;100147.28;10407304;27;96572;-83